createdAt,value
2018-07-26T00:00:27.737Z,14.57
2018-07-26T00:02:57.176Z,15.60
2018-07-26T00:05:26.296Z,21.70
2018-07-26T00:07:55.666Z,19.33
2018-07-26T00:10:25.126Z,20.10
2018-07-26T00:12:54.412Z,14.70
2018-07-26T00:15:24.083Z,16.47
2018-07-26T00:17:53.277Z,15.40
2018-07-26T00:20:22.816Z,20.77
2018-07-26T00:22:51.811Z,13.20
2018-07-26T00:25:25.750Z,18.97
2018-07-26T00:27:57.617Z,24.53
2018-07-26T00:30:26.914Z,14.90
2018-07-26T00:33:04.148Z,11.73
2018-07-26T00:35:32.939Z,25.57
2018-07-26T00:38:02.660Z,15.77
2018-07-26T00:40:31.575Z,17.17
2018-07-26T00:43:00.715Z,17.50
2018-07-26T00:45:33.311Z,18.70
2018-07-26T00:48:02.411Z,18.97
2018-07-26T00:50:31.648Z,21.50
2018-07-26T00:53:00.493Z,13.30
2018-07-26T00:55:29.513Z,22.60
2018-07-26T00:57:58.552Z,16.13
2018-07-26T01:00:30.307Z,22.27
2018-07-26T01:02:59.687Z,18.47
2018-07-26T01:05:30.266Z,17.03
2018-07-26T01:07:59.126Z,11.23
2018-07-26T01:10:28.165Z,13.87
2018-07-26T01:13:18.108Z,13.03
2018-07-26T01:15:56.145Z,10.90
2018-07-26T01:18:26.570Z,15.63
2018-07-26T01:20:59.334Z,20.83
2018-07-26T01:23:28.338Z,17.63
2018-07-26T01:25:57.272Z,11.83
2018-07-26T01:28:30.555Z,11.43
2018-07-26T01:30:59.513Z,13.00
2018-07-26T01:33:29.548Z,15.80
2018-07-26T01:35:58.132Z,16.60
2018-07-26T01:38:27.030Z,16.33
2018-07-26T01:40:56.462Z,15.60
2018-07-26T01:44:03.348Z,11.27
2018-07-26T01:46:34.570Z,15.43
2018-07-26T01:49:03.789Z,11.37
2018-07-26T01:51:33.530Z,17.00
2018-07-26T01:54:03.088Z,13.00
2018-07-26T01:56:32.263Z,14.73
2018-07-26T01:59:01.914Z,12.80
2018-07-26T02:04:20.989Z,14.67
2018-07-26T02:06:54.793Z,11.40
2018-07-26T02:09:23.769Z,19.27
2018-07-26T02:11:53.587Z,17.83
2018-07-26T02:14:27.864Z,20.00
2018-07-26T02:16:57.287Z,14.07
2018-07-26T02:19:26.274Z,11.90
2018-07-26T02:21:56.084Z,13.10
2018-07-26T02:24:26.238Z,17.03
2018-07-26T02:27:03.091Z,21.63
2018-07-26T02:29:40.393Z,17.30
2018-07-26T02:32:17.409Z,21.20
2018-07-26T02:34:46.644Z,14.47
2018-07-26T02:37:15.598Z,19.60
2018-07-26T02:39:45.102Z,22.43
2018-07-26T02:42:14.875Z,51.30
2018-07-26T02:44:45.220Z,14.87
2018-07-26T02:47:14.195Z,22.30
2018-07-26T02:49:43.157Z,23.83
2018-07-26T02:52:12.372Z,16.50
2018-07-26T02:54:41.676Z,14.67
2018-07-26T02:57:16.981Z,20.10
2018-07-26T02:59:46.231Z,20.00
2018-07-26T03:02:15.960Z,16.23
2018-07-26T03:04:57.140Z,20.67
2018-07-26T03:07:26.554Z,13.23
2018-07-26T03:09:55.533Z,32.87
2018-07-26T03:12:24.857Z,15.73
2018-07-26T03:14:53.800Z,23.83
2018-07-26T03:17:23.465Z,22.37
2018-07-26T03:19:53.301Z,19.13
2018-07-26T03:22:22.282Z,17.70
2018-07-26T03:24:51.628Z,17.07
2018-07-26T03:27:21.912Z,23.77
2018-07-26T03:29:51.223Z,21.63
2018-07-26T03:32:20.301Z,16.40
2018-07-26T03:34:49.597Z,16.70
2018-07-26T03:37:18.507Z,27.13
2018-07-26T03:39:47.540Z,18.20
2018-07-26T03:42:17.319Z,19.00
2018-07-26T03:44:46.231Z,19.87
2018-07-26T03:47:15.485Z,16.10
2018-07-26T03:49:44.481Z,24.27
2018-07-26T03:52:13.779Z,18.93
2018-07-26T03:54:44.178Z,21.40
2018-07-26T03:57:13.084Z,19.27
2018-07-26T03:59:42.245Z,15.77
2018-07-26T04:02:11.272Z,22.47
2018-07-26T04:04:41.074Z,28.03
2018-07-26T04:07:17.976Z,17.20
2018-07-26T04:09:48.365Z,20.63
2018-07-26T04:12:18.601Z,21.60
2018-07-26T04:14:47.876Z,21.00
2018-07-26T04:17:17.805Z,29.63
2018-07-26T04:19:48.088Z,20.33
2018-07-26T04:22:17.069Z,16.60
2018-07-26T04:24:46.458Z,21.20
2018-07-26T04:27:22.546Z,19.73
2018-07-26T04:29:53.157Z,21.60
2018-07-26T04:32:22.091Z,29.43
2018-07-26T04:34:50.600Z,26.10
2018-07-26T04:37:20.742Z,24.03
2018-07-26T04:42:23.990Z,19.97
2018-07-26T04:44:52.845Z,27.00
2018-07-26T04:47:21.895Z,19.27
2018-07-26T04:49:51.232Z,23.43
2018-07-26T04:52:20.234Z,20.87
2018-07-26T04:54:49.635Z,29.03
2018-07-26T04:57:18.514Z,21.73
2018-07-26T04:59:47.483Z,30.90
2018-07-26T05:02:16.410Z,44.53
2018-07-26T05:04:45.418Z,31.07
2018-07-26T05:07:15.961Z,30.90
2018-07-26T05:09:45.143Z,35.50
2018-07-26T05:12:14.741Z,30.93
2018-07-26T05:14:44.180Z,30.43
2018-07-26T05:17:13.347Z,27.37
2018-07-26T05:19:42.788Z,33.93
2018-07-26T05:22:28.417Z,29.70
2018-07-26T05:25:11.996Z,30.77
2018-07-26T05:27:54.244Z,25.93
2018-07-26T05:30:38.179Z,18.37
2018-07-26T05:33:08.384Z,35.97
2018-07-26T05:35:38.144Z,29.40
2018-07-26T05:38:12.162Z,21.23
2018-07-26T05:40:43.368Z,17.70
2018-07-26T05:43:12.625Z,23.67
2018-07-26T05:45:44.906Z,28.90
2018-07-26T05:48:15.558Z,27.90
2018-07-26T05:50:44.711Z,21.80
2018-07-26T05:53:14.150Z,21.77
2018-07-26T05:55:43.569Z,20.33
2018-07-26T05:58:13.092Z,17.30
2018-07-26T06:00:42.292Z,27.77
2018-07-26T06:03:11.812Z,21.87
2018-07-26T06:05:40.924Z,31.57
2018-07-26T06:08:11.274Z,16.70
2018-07-26T06:10:45.868Z,31.43
2018-07-26T06:13:15.603Z,24.63
2018-07-26T06:15:46.003Z,18.83
2018-07-26T06:18:14.965Z,18.87
2018-07-26T06:20:44.661Z,11.57
2018-07-26T06:23:17.399Z,20.33
2018-07-26T06:25:55.627Z,20.60
2018-07-26T06:28:24.601Z,16.53
2018-07-26T06:30:54.748Z,12.00
2018-07-26T06:33:23.829Z,20.60
2018-07-26T06:35:59.375Z,10.80
2018-07-26T06:38:28.417Z,9.80
2018-07-26T06:40:57.610Z,9.17
2018-07-26T06:43:27.709Z,10.20
2018-07-26T06:45:56.940Z,22.27
2018-07-26T06:48:27.468Z,17.77
2018-07-26T06:50:56.852Z,15.37
2018-07-26T06:53:26.794Z,11.20
2018-07-26T06:55:56.200Z,11.93
2018-07-26T06:58:25.139Z,9.87
2018-07-26T07:00:54.462Z,9.43
2018-07-26T07:03:23.067Z,22.50
2018-07-26T07:05:52.498Z,10.57
2018-07-26T07:08:21.950Z,8.50
2018-07-26T07:10:52.051Z,4.17
2018-07-26T07:13:22.223Z,11.80
2018-07-26T07:15:51.780Z,9.10
2018-07-26T07:18:23.186Z,5.20
2018-07-26T07:20:52.524Z,4.43
2018-07-26T07:23:22.799Z,5.40
2018-07-26T07:25:52.573Z,6.17
2018-07-26T07:28:22.518Z,18.57
2018-07-26T07:30:51.941Z,5.33
2018-07-26T07:33:30.213Z,10.00
2018-07-26T07:36:09.972Z,10.10
2018-07-26T07:38:41.289Z,10.20
2018-07-26T07:41:11.284Z,28.07
2018-07-26T07:43:43.969Z,6.93
2018-07-26T07:46:13.066Z,6.80
2018-07-26T07:48:42.251Z,5.73
2018-07-26T07:51:11.255Z,7.60
2018-07-26T07:53:40.816Z,9.10
2018-07-26T07:56:10.215Z,4.20
2018-07-26T07:58:39.185Z,3.60
2018-07-26T08:01:14.071Z,3.70
2018-07-26T08:03:44.176Z,3.10
2018-07-26T08:06:13.264Z,5.95
2018-07-26T08:08:42.452Z,5.30
2018-07-26T08:11:13.763Z,3.27
2018-07-26T08:13:45.465Z,4.03
2018-07-26T08:16:15.227Z,3.93
2018-07-26T08:18:45.077Z,14.30
2018-07-26T08:21:15.769Z,3.25
2018-07-26T08:23:45.309Z,5.43
2018-07-26T08:26:16.871Z,5.65
2018-07-26T08:28:46.194Z,6.90
2018-07-26T08:31:15.436Z,7.37
2018-07-26T08:33:44.812Z,3.95
2018-07-26T08:36:15.188Z,7.62
2018-07-26T08:38:45.451Z,2.87
2018-07-26T08:41:19.037Z,12.00
2018-07-26T08:43:50.080Z,5.25
2018-07-26T08:46:21.508Z,11.22
2018-07-26T08:48:55.049Z,8.58
2018-07-26T08:51:26.456Z,14.28
2018-07-26T08:54:09.117Z,7.60
2018-07-26T08:56:40.090Z,2.83
2018-07-26T08:59:20.748Z,11.63
2018-07-26T09:01:57.271Z,5.05
2018-07-26T09:04:26.412Z,7.05
2018-07-26T09:06:57.276Z,7.22
2018-07-26T09:09:31.725Z,12.35
2018-07-26T09:12:00.408Z,7.92
2018-07-26T09:14:29.957Z,10.60
2018-07-26T09:17:01.081Z,6.70
2018-07-26T09:19:30.879Z,2.60
2018-07-26T09:22:00.629Z,3.22
2018-07-26T09:24:31.846Z,5.37
2018-07-26T09:27:01.336Z,5.08
2018-07-26T09:29:30.788Z,15.10
2018-07-26T09:32:03.935Z,5.72
2018-07-26T09:34:33.939Z,8.10
2018-07-26T09:37:04.200Z,6.03
2018-07-26T09:39:33.714Z,9.08
2018-07-26T09:42:03.284Z,2.00
2018-07-26T09:44:34.614Z,4.78
2018-07-26T09:47:04.896Z,7.85
2018-07-26T09:49:35.254Z,3.65
2018-07-26T09:52:09.010Z,3.10
2018-07-26T09:54:38.686Z,10.38
2018-07-26T09:57:09.404Z,5.22
2018-07-26T09:59:40.333Z,5.53
2018-07-26T10:02:09.745Z,4.70
2018-07-26T10:04:39.679Z,11.25
2018-07-26T10:07:09.589Z,10.70
2018-07-26T10:09:39.034Z,3.27
2018-07-26T10:12:08.652Z,2.77
2018-07-26T10:14:41.173Z,2.27
2018-07-26T10:17:32.477Z,10.82
2018-07-26T10:20:09.147Z,4.03
2018-07-26T10:22:38.674Z,7.20
2018-07-26T10:25:13.690Z,2.52
2018-07-26T10:27:45.076Z,4.08
2018-07-26T10:30:16.578Z,7.33
2018-07-26T10:32:50.194Z,5.22
2018-07-26T10:35:23.354Z,1.92
2018-07-26T10:37:54.159Z,5.30
2018-07-26T10:40:30.710Z,6.87
2018-07-26T10:43:15.392Z,3.10
2018-07-26T10:45:45.981Z,10.98
2018-07-26T10:48:18.250Z,4.47
2018-07-26T10:50:48.657Z,5.83
2018-07-26T10:53:20.306Z,3.12
2018-07-26T10:55:59.245Z,5.65
2018-07-26T10:58:32.606Z,2.47
2018-07-26T11:01:02.264Z,6.60
2018-07-26T11:03:37.167Z,9.53
2018-07-26T11:06:07.389Z,2.20
2018-07-26T11:08:37.218Z,6.67
2018-07-26T11:11:06.664Z,11.45
2018-07-26T11:13:36.805Z,6.37
2018-07-26T11:16:06.921Z,4.00
2018-07-26T11:18:39.391Z,10.93
2018-07-26T11:21:12.002Z,6.25
2018-07-26T11:23:44.747Z,2.10
2018-07-26T11:26:15.749Z,7.47
2018-07-26T11:28:47.384Z,2.58
2018-07-26T11:33:42.166Z,5.05
2018-07-26T11:36:16.028Z,10.15
2018-07-26T11:39:26.343Z,13.05
2018-07-26T11:41:57.462Z,3.35
2018-07-26T11:44:29.298Z,9.58
2018-07-26T11:47:00.383Z,1.77
2018-07-26T11:49:42.868Z,3.30
2018-07-26T11:52:12.339Z,4.60
2018-07-26T11:54:47.903Z,2.40
2018-07-26T11:57:20.866Z,5.10
2018-07-26T11:59:55.076Z,6.28
2018-07-26T12:02:27.509Z,6.12
2018-07-26T12:04:59.049Z,2.72
2018-07-26T12:07:30.212Z,3.27
2018-07-26T12:10:00.267Z,75.50
2018-07-26T12:12:36.394Z,45.20
2018-07-26T12:15:14.714Z,6.53
2018-07-26T12:17:46.095Z,5.80
2018-07-26T12:20:18.103Z,4.62
2018-07-26T12:22:51.486Z,9.38
2018-07-26T12:25:22.320Z,5.65
2018-07-26T12:27:57.929Z,8.63
2018-07-26T12:30:28.731Z,4.20
2018-07-26T12:32:59.066Z,12.85
2018-07-26T12:35:31.104Z,5.35
2018-07-26T12:38:02.144Z,7.72
2018-07-26T12:40:32.645Z,4.47
2018-07-26T12:43:05.134Z,2.95
2018-07-26T12:45:41.092Z,5.30
2018-07-26T12:48:20.861Z,28.27
2018-07-26T12:51:11.341Z,8.20
2018-07-26T12:53:44.610Z,5.22
2018-07-26T12:56:21.213Z,7.30
2018-07-26T12:59:00.775Z,5.47
2018-07-26T13:01:37.325Z,3.12
2018-07-26T13:04:13.840Z,7.78
2018-07-26T13:06:46.467Z,12.23
2018-07-26T13:09:16.512Z,5.30
2018-07-26T13:11:48.214Z,5.97
2018-07-26T13:14:20.805Z,5.30
2018-07-26T13:16:58.873Z,6.78
2018-07-26T13:19:32.581Z,4.78
2018-07-26T13:22:04.261Z,4.15
2018-07-26T13:24:38.181Z,4.15
2018-07-26T13:27:09.685Z,7.87
2018-07-26T13:29:44.222Z,9.20
2018-07-26T13:32:21.162Z,4.10
2018-07-26T13:35:08.175Z,8.78
2018-07-26T13:37:42.807Z,6.25
2018-07-26T13:40:17.339Z,4.67
2018-07-26T13:42:50.137Z,4.30
2018-07-26T13:45:23.400Z,13.18
2018-07-26T13:48:07.240Z,3.02
2018-07-26T13:50:38.638Z,11.33
2018-07-26T13:53:09.585Z,2.63
2018-07-26T13:55:42.495Z,4.03
2018-07-26T13:58:16.269Z,7.43
2018-07-26T14:01:05.998Z,5.73
2018-07-26T14:03:39.328Z,7.73
2018-07-26T14:06:10.944Z,5.23
2018-07-26T14:08:41.859Z,9.23
2018-07-26T14:11:14.498Z,5.97
2018-07-26T14:17:24.315Z,15.00
2018-07-26T14:19:56.591Z,6.97
2018-07-26T14:22:41.757Z,5.70
2018-07-26T14:28:00.442Z,9.83
2018-07-26T14:30:35.360Z,9.60
2018-07-26T14:33:19.496Z,3.53
2018-07-26T14:35:51.490Z,2.57
2018-07-26T14:38:35.488Z,5.93
2018-07-26T14:41:05.653Z,6.87
2018-07-26T14:43:37.195Z,10.30
2018-07-26T14:46:20.372Z,40.33
2018-07-26T14:48:51.056Z,11.60
2018-07-26T14:51:23.275Z,9.07
2018-07-26T14:54:07.395Z,8.77
2018-07-26T14:56:39.380Z,5.20
2018-07-26T14:59:10.639Z,18.33
2018-07-26T15:01:41.517Z,33.43
2018-07-26T15:04:13.854Z,5.30
2018-07-26T15:06:44.797Z,4.77
2018-07-26T15:09:15.261Z,5.93
2018-07-26T15:11:47.198Z,12.60
2018-07-26T15:14:20.082Z,5.33
2018-07-26T15:16:57.650Z,3.40
2018-07-26T15:19:36.375Z,6.00
2018-07-26T15:22:10.438Z,9.70
2018-07-26T15:24:41.708Z,4.50
2018-07-26T15:27:13.361Z,5.63
2018-07-26T15:29:44.249Z,10.37
2018-07-26T15:32:20.327Z,13.80
2018-07-26T15:34:54.079Z,5.53
2018-07-26T15:37:25.840Z,7.17
2018-07-26T15:39:57.214Z,26.70
2018-07-26T15:42:29.158Z,4.97
2018-07-26T15:45:02.858Z,10.47
2018-07-26T15:47:34.175Z,4.20
2018-07-26T15:50:04.163Z,5.97
2018-07-26T15:52:33.497Z,4.53
2018-07-26T15:55:04.447Z,6.73
2018-07-26T15:57:37.716Z,6.20
2018-07-26T16:00:12.141Z,10.03
2018-07-26T16:02:59.472Z,10.17
2018-07-26T16:05:31.692Z,4.73
2018-07-26T16:08:07.184Z,4.87
2018-07-26T16:10:48.668Z,11.03
2018-07-26T16:13:21.306Z,18.70
2018-07-26T16:15:54.532Z,14.97
2018-07-26T16:18:31.117Z,5.37
2018-07-26T16:21:03.279Z,5.30
2018-07-26T16:23:40.495Z,4.43
2018-07-26T16:26:12.601Z,5.17
2018-07-26T16:28:46.223Z,5.53
2018-07-26T16:31:18.357Z,7.43
2018-07-26T16:33:53.171Z,9.00
2018-07-26T16:36:34.508Z,8.70
2018-07-26T16:39:19.732Z,10.30
2018-07-26T16:41:53.426Z,6.97
2018-07-26T16:44:29.805Z,6.57
2018-07-26T16:47:03.151Z,5.60
2018-07-26T16:49:36.141Z,5.50
2018-07-26T16:52:07.675Z,11.30
2018-07-26T16:54:42.581Z,9.77
2018-07-26T16:57:13.610Z,15.03
2018-07-26T16:59:43.830Z,12.90
2018-07-26T17:02:28.070Z,18.33
2018-07-26T17:04:57.181Z,9.80
2018-07-26T17:07:29.801Z,15.70
2018-07-26T17:09:59.339Z,12.45
2018-07-26T17:12:29.692Z,36.47
2018-07-26T17:15:00.089Z,25.77
2018-07-26T17:17:33.005Z,29.03
2018-07-26T17:20:02.854Z,31.63
2018-07-26T17:22:34.268Z,23.57
2018-07-26T17:25:06.371Z,9.50
2018-07-26T17:27:49.122Z,34.60
2018-07-26T17:33:25.565Z,14.13
2018-07-26T17:36:26.436Z,32.37
2018-07-26T17:38:58.748Z,59.10
2018-07-26T17:41:32.108Z,36.67
2018-07-26T17:44:01.754Z,23.90
2018-07-26T17:46:37.248Z,17.50
2018-07-26T17:49:20.094Z,22.57
2018-07-26T17:51:53.124Z,18.37
2018-07-26T17:54:24.495Z,12.10
2018-07-26T17:57:12.000Z,26.73
2018-07-26T18:00:14.501Z,28.40
2018-07-26T18:02:46.509Z,15.27
2018-07-26T18:05:25.169Z,26.23
2018-07-26T18:08:35.565Z,30.33
2018-07-26T18:14:13.157Z,37.43
2018-07-26T18:16:56.909Z,36.30
2018-07-26T18:19:29.090Z,41.77
2018-07-26T18:24:37.905Z,29.17
2018-07-26T18:27:09.302Z,10.97
2018-07-26T18:29:51.961Z,21.87
2018-07-26T18:32:32.329Z,30.63
2018-07-26T18:35:08.356Z,41.50
2018-07-26T18:37:45.780Z,34.47
2018-07-26T18:40:22.777Z,30.60
2018-07-26T18:43:00.491Z,20.63
2018-07-26T18:45:47.604Z,19.27
2018-07-26T18:48:19.546Z,49.90
2018-07-26T18:50:53.176Z,18.40
2018-07-26T18:53:27.165Z,45.67
2018-07-26T18:56:04.884Z,34.47
2018-07-26T19:01:43.160Z,53.50
2018-07-26T19:04:24.680Z,63.50
2018-07-26T19:06:59.723Z,51.53
2018-07-26T19:09:37.206Z,45.43
2018-07-26T19:12:16.014Z,78.60
2018-07-26T19:18:14.541Z,33.20
2018-07-26T19:32:30.863Z,38.03
2018-07-26T19:35:20.134Z,35.77
2018-07-26T19:37:53.208Z,23.10
2018-07-26T19:40:56.364Z,32.20
2018-07-26T19:44:26.403Z,19.17
2018-07-26T19:46:59.210Z,15.23
2018-07-26T19:49:56.626Z,24.40
2018-07-26T19:52:31.495Z,23.07
2018-07-26T19:55:05.221Z,35.00
2018-07-26T19:57:47.838Z,16.03
2018-07-26T20:03:29.613Z,20.63
2018-07-26T20:06:08.450Z,19.80
2018-07-26T20:08:41.995Z,9.00
2018-07-26T20:16:31.103Z,23.10
2018-07-26T20:19:08.196Z,11.30
2018-07-26T20:21:40.338Z,15.87
2018-07-26T20:24:12.554Z,20.80
2018-07-26T20:26:50.304Z,15.30
2018-07-26T20:29:36.407Z,40.33
2018-07-26T20:32:41.742Z,14.87
2018-07-26T20:35:15.532Z,29.50
2018-07-26T20:44:09.172Z,26.23
2018-07-26T20:46:42.224Z,15.63
2018-07-26T20:49:46.145Z,14.00
2018-07-26T20:53:34.918Z,19.87
2018-07-26T20:56:55.357Z,23.00
2018-07-26T21:04:45.176Z,23.13
2018-07-26T21:07:22.547Z,47.93
2018-07-26T21:12:49.986Z,59.07
2018-07-26T21:15:34.442Z,118.23
2018-07-26T21:18:07.535Z,56.57
2018-07-26T21:20:48.704Z,20.53
2018-07-26T21:23:25.724Z,27.63
2018-07-26T21:25:58.706Z,39.73
2018-07-26T21:28:34.484Z,27.50
2018-07-26T21:31:08.404Z,22.10
2018-07-26T21:33:47.709Z,21.40
2018-07-26T21:36:22.181Z,18.93
2018-07-26T21:38:53.074Z,26.70
2018-07-26T21:41:28.430Z,16.10
2018-07-26T21:44:02.175Z,38.70
2018-07-26T21:49:25.998Z,18.53
2018-07-26T21:51:57.640Z,19.97
2018-07-26T21:54:26.779Z,13.77
2018-07-26T21:56:59.721Z,21.37
2018-07-26T21:59:29.833Z,13.20
2018-07-26T22:02:01.476Z,15.23
2018-07-26T22:04:36.096Z,16.53
2018-07-26T22:07:14.224Z,15.00
2018-07-26T22:09:46.725Z,13.90
2018-07-26T22:12:21.882Z,18.17
2018-07-26T22:14:56.293Z,17.97
2018-07-26T22:17:30.760Z,14.77
2018-07-26T22:20:01.887Z,22.93
2018-07-26T22:22:52.652Z,21.60
2018-07-26T22:25:27.431Z,19.87
2018-07-26T22:27:58.572Z,24.50
2018-07-26T22:30:33.741Z,13.90
2018-07-26T22:33:19.844Z,22.23
2018-07-26T22:36:07.331Z,14.70
2018-07-26T22:38:37.328Z,15.73
2018-07-26T22:41:06.727Z,22.33
2018-07-26T22:43:36.731Z,19.73
2018-07-26T22:46:10.124Z,17.67
2018-07-26T22:48:39.559Z,12.03
2018-07-26T22:51:08.817Z,19.60
2018-07-26T22:53:39.816Z,12.17
2018-07-26T22:56:11.120Z,18.03
2018-07-26T22:58:40.977Z,15.07
2018-07-26T23:01:10.294Z,19.53
2018-07-26T23:03:52.634Z,8.13
2018-07-26T23:06:23.285Z,19.40
2018-07-26T23:08:52.705Z,15.07
2018-07-26T23:11:23.353Z,10.70
2018-07-26T23:13:55.191Z,14.37
2018-07-26T23:16:25.756Z,10.73
2018-07-26T23:18:57.310Z,15.13
2018-07-26T23:21:36.377Z,7.67
2018-07-26T23:24:10.991Z,9.43
2018-07-26T23:26:40.677Z,18.23
2018-07-26T23:29:10.176Z,8.67
2018-07-26T23:31:39.892Z,11.10
2018-07-26T23:34:23.465Z,11.70
2018-07-26T23:36:53.166Z,13.63
2018-07-26T23:39:30.097Z,9.50
2018-07-26T23:41:59.721Z,8.50
2018-07-26T23:44:30.501Z,8.90
2018-07-26T23:47:01.231Z,14.23
2018-07-26T23:49:35.245Z,7.17
2018-07-26T23:52:05.182Z,14.40
2018-07-26T23:54:42.203Z,11.30
2018-07-26T23:57:16.080Z,13.43
2018-07-26T23:59:52.178Z,11.73
